Adrian, Washington
Current Conditions -  °F | °C
As of 3:53 PM on Friday 31 Oct 2014 (Local Time) from KEPH Reporting Station
Haze Haze  
Wind Chill: 54°   Ceiling: 500
Heat Index: 54°   Visibility: 4mi
Dew Point: 52°   Wind: 13mph
Humidity: 93%   Direction: 210°SSW
Pressure: 29.75"   Gusts: NA
Location:  47.4314°N, 119.485°W
Report Text: KEPH 312253Z AUTO 21011KT 4SM BR OVC005 12/11 A2975 RMK AO2 RAE07 CIG 004V008 SLP077 P0001 T01220111
Loading
Personal Weather Stations






























Interactive Weather Map
Tropical Storm Tracking
New forecast layout! Learn more

10-Day Weather Forecast

Advertisements
Track Severe Weather on mobile